createdAt,value
2023-05-12T00:00:57.802Z,0.67
2023-05-12T00:03:25.365Z,0.40
2023-05-12T00:05:53.083Z,0.47
2023-05-12T00:08:21.055Z,0.50
2023-05-12T00:10:48.531Z,0.70
2023-05-12T00:13:16.067Z,0.63
2023-05-12T00:15:43.502Z,0.50
2023-05-12T00:18:10.813Z,0.50
2023-05-12T00:20:38.999Z,0.50
2023-05-12T00:23:06.444Z,0.83
2023-05-12T00:25:34.296Z,0.50
2023-05-12T00:28:01.987Z,0.43
2023-05-12T00:30:29.417Z,0.57
2023-05-12T00:32:56.809Z,0.70
2023-05-12T00:35:24.431Z,0.73
2023-05-12T00:37:51.886Z,0.80
2023-05-12T00:40:19.876Z,0.60
2023-05-12T00:42:47.572Z,0.77
2023-05-12T00:45:15.007Z,0.90
2023-05-12T00:47:46.891Z,0.97
2023-05-12T00:50:14.365Z,0.50
2023-05-12T00:52:41.833Z,0.47
2023-05-12T00:55:09.562Z,0.30
2023-05-12T00:57:37.403Z,0.37
2023-05-12T01:00:05.239Z,0.43
2023-05-12T01:02:32.737Z,0.30
2023-05-12T01:05:00.287Z,0.30
2023-05-12T01:07:28.628Z,0.40
2023-05-12T01:09:56.764Z,0.60
2023-05-12T01:12:27.332Z,0.60
2023-05-12T01:14:55.925Z,0.50
2023-05-12T01:17:27.547Z,0.70
2023-05-12T01:19:56.623Z,0.60
2023-05-12T01:22:24.922Z,0.73
2023-05-12T01:24:54.656Z,0.87
2023-05-12T01:27:23.087Z,0.50
2023-05-12T01:29:50.735Z,0.57
2023-05-12T01:32:19.098Z,0.63
2023-05-12T01:34:47.209Z,1.17
2023-05-12T01:37:14.557Z,0.50
2023-05-12T01:39:42.044Z,0.70
2023-05-12T01:42:09.682Z,0.40
2023-05-12T01:44:37.162Z,0.67
2023-05-12T01:47:04.698Z,0.70
2023-05-12T01:49:32.160Z,0.70
2023-05-12T01:51:59.559Z,0.60
2023-05-12T01:54:27.676Z,0.70
2023-05-12T01:56:55.149Z,0.60
2023-05-12T01:59:22.660Z,0.67
2023-05-12T02:01:50.456Z,0.60
2023-05-12T02:04:17.938Z,1.00
2023-05-12T02:06:45.337Z,0.63
2023-05-12T02:09:13.103Z,0.60
2023-05-12T02:11:43.312Z,0.70
2023-05-12T02:14:10.818Z,1.30
2023-05-12T02:16:38.257Z,0.90
2023-05-12T02:19:05.877Z,0.63
2023-05-12T02:21:33.404Z,0.70
2023-05-12T02:24:00.900Z,0.53
2023-05-12T02:26:28.324Z,0.80
2023-05-12T02:28:55.868Z,0.70
2023-05-12T02:31:23.253Z,0.50
2023-05-12T02:33:51.720Z,0.60
2023-05-12T02:36:19.258Z,0.53
2023-05-12T02:38:46.702Z,0.57
2023-05-12T02:41:14.082Z,0.60
2023-05-12T02:43:44.762Z,0.53
2023-05-12T02:46:12.161Z,0.50
2023-05-12T02:48:39.647Z,0.50
2023-05-12T02:51:07.043Z,0.60
2023-05-12T02:53:35.489Z,0.50
2023-05-12T02:56:02.925Z,0.67
2023-05-12T02:58:30.384Z,0.50
2023-05-12T03:01:09.469Z,0.60
2023-05-12T03:03:39.228Z,0.50
2023-05-12T03:06:07.126Z,0.53
2023-05-12T03:08:34.626Z,0.80
2023-05-12T03:11:02.130Z,1.07
2023-05-12T03:13:29.564Z,0.57
2023-05-12T03:16:01.412Z,1.00
2023-05-12T03:18:29.337Z,0.50
2023-05-12T03:20:56.902Z,0.50
2023-05-12T03:23:24.374Z,0.47
2023-05-12T03:25:51.988Z,0.50
2023-05-12T03:28:19.493Z,0.47
2023-05-12T03:30:46.857Z,0.50
2023-05-12T03:33:14.287Z,0.53
2023-05-12T03:35:43.886Z,0.37
2023-05-12T03:38:11.253Z,0.57
2023-05-12T03:40:38.710Z,0.50
2023-05-12T03:43:06.118Z,0.30
2023-05-12T03:45:33.522Z,0.53
2023-05-12T03:48:01.423Z,0.40
2023-05-12T03:50:28.812Z,0.50
2023-05-12T03:52:56.301Z,0.40
2023-05-12T03:55:24.082Z,0.57
2023-05-12T03:57:51.572Z,0.40
2023-05-12T04:00:20.104Z,0.40
2023-05-12T04:02:47.766Z,0.60
2023-05-12T04:05:15.467Z,0.50
2023-05-12T04:07:46.080Z,0.40
2023-05-12T04:10:13.500Z,0.47
2023-05-12T04:12:40.931Z,0.23
2023-05-12T04:15:08.921Z,0.33
2023-05-12T04:17:36.517Z,0.30
2023-05-12T04:20:04.389Z,0.40
2023-05-12T04:22:32.086Z,0.57
2023-05-12T04:24:59.502Z,0.30
2023-05-12T04:27:26.844Z,0.90
2023-05-12T04:29:54.202Z,0.80
2023-05-12T04:32:21.975Z,0.53
2023-05-12T04:34:49.606Z,0.50
2023-05-12T04:37:17.080Z,0.60
2023-05-12T04:39:47.524Z,0.53
2023-05-12T04:42:15.014Z,0.67
2023-05-12T04:44:42.493Z,0.63
2023-05-12T04:47:09.964Z,0.40
2023-05-12T04:49:37.410Z,0.50
2023-05-12T04:52:05.644Z,0.60
2023-05-12T04:54:33.089Z,0.83
2023-05-12T04:57:00.486Z,0.50
2023-05-12T04:59:27.846Z,0.60
2023-05-12T05:01:55.334Z,0.40
2023-05-12T05:04:23.086Z,0.70
2023-05-12T05:06:50.505Z,0.50
2023-05-12T05:09:17.926Z,0.50
2023-05-12T05:11:48.534Z,0.60
2023-05-12T05:14:15.884Z,0.57
2023-05-12T05:16:43.284Z,0.40
2023-05-12T05:19:20.183Z,0.50
2023-05-12T05:21:53.848Z,0.33
2023-05-12T05:24:21.372Z,0.47
2023-05-12T05:26:48.975Z,0.50
2023-05-12T05:29:16.607Z,0.60
2023-05-12T05:31:46.358Z,0.63
2023-05-12T05:34:13.868Z,0.60
2023-05-12T05:36:41.565Z,0.80
2023-05-12T05:39:10.521Z,0.50
2023-05-12T05:41:37.887Z,0.60
2023-05-12T05:44:05.888Z,0.50
2023-05-12T05:46:33.283Z,0.50
2023-05-12T05:49:00.688Z,0.50
2023-05-12T05:51:28.394Z,0.40
2023-05-12T05:53:55.879Z,0.70
2023-05-12T05:56:23.161Z,0.60
2023-05-12T05:58:50.933Z,0.70
2023-05-12T06:01:18.406Z,0.93
2023-05-12T06:03:48.881Z,0.73
2023-05-12T06:06:16.403Z,0.70
2023-05-12T06:08:43.810Z,0.80
2023-05-12T06:11:12.106Z,0.90
2023-05-12T06:13:39.512Z,0.83
2023-05-12T06:16:07.412Z,1.10
2023-05-12T06:18:38.056Z,0.90
2023-05-12T06:21:06.481Z,1.20
2023-05-12T06:23:34.003Z,1.00
2023-05-12T06:26:01.484Z,1.17
2023-05-12T06:28:28.799Z,1.60
2023-05-12T06:30:56.397Z,1.10
2023-05-12T06:33:23.773Z,1.47
2023-05-12T06:35:51.248Z,1.43
2023-05-12T06:38:18.622Z,1.70
2023-05-12T06:40:46.046Z,1.43
2023-05-12T06:43:13.514Z,1.50
2023-05-12T06:45:40.881Z,1.30
2023-05-12T06:48:09.541Z,1.80
2023-05-12T06:50:39.850Z,1.93
2023-05-12T06:53:08.173Z,1.73
2023-05-12T06:55:35.488Z,1.70
2023-05-12T06:58:03.289Z,1.73
2023-05-12T07:00:30.767Z,1.70
2023-05-12T07:02:58.133Z,1.60
2023-05-12T07:05:25.878Z,1.90
2023-05-12T07:07:53.324Z,1.90
2023-05-12T07:10:23.807Z,1.73
2023-05-12T07:12:51.306Z,1.80
2023-05-12T07:15:19.306Z,1.47
2023-05-12T07:17:47.109Z,1.57
2023-05-12T07:20:14.606Z,2.00
2023-05-12T07:22:42.134Z,1.37
2023-05-12T07:25:09.749Z,1.17
2023-05-12T07:27:37.246Z,1.60
2023-05-12T07:30:05.920Z,1.77
2023-05-12T07:32:33.435Z,1.47
2023-05-12T07:35:01.010Z,1.30
2023-05-12T07:37:28.329Z,1.70
2023-05-12T07:39:55.726Z,1.60
2023-05-12T07:42:23.780Z,1.50
2023-05-12T07:44:51.123Z,1.60
2023-05-12T07:47:18.591Z,1.47
2023-05-12T07:49:46.247Z,1.57
2023-05-12T07:52:13.729Z,1.13
2023-05-12T07:54:41.171Z,1.07
2023-05-12T07:57:08.725Z,1.30
2023-05-12T07:59:36.205Z,1.27
2023-05-12T08:02:03.830Z,1.30
2023-05-12T08:04:31.978Z,1.30
2023-05-12T08:06:59.573Z,1.17
2023-05-12T08:09:26.966Z,0.83
2023-05-12T08:11:54.624Z,1.20
2023-05-12T08:14:22.828Z,1.10
2023-05-12T08:16:50.256Z,0.90
2023-05-12T08:19:17.802Z,1.00
2023-05-12T08:21:45.887Z,1.10
2023-05-12T08:24:13.373Z,1.07
2023-05-12T08:26:40.772Z,1.00
2023-05-12T08:29:08.903Z,1.00
2023-05-12T08:31:37.953Z,1.00
2023-05-12T08:36:36.122Z,0.70
2023-05-12T08:39:04.446Z,0.87
2023-05-12T08:41:39.964Z,1.10
2023-05-12T08:44:08.378Z,0.60
2023-05-12T08:46:36.127Z,0.77
2023-05-12T08:49:05.006Z,0.60
2023-05-12T08:51:37.684Z,0.80
2023-05-12T08:54:05.803Z,0.60
2023-05-12T08:59:05.444Z,0.57
2023-05-12T09:01:36.886Z,0.60
2023-05-12T09:04:07.566Z,0.60
2023-05-12T09:06:35.254Z,0.70
2023-05-12T09:09:03.912Z,0.60
2023-05-12T09:11:31.844Z,0.77
2023-05-12T09:14:03.520Z,0.70
2023-05-12T09:16:32.500Z,0.60
2023-05-12T09:19:00.799Z,0.60
2023-05-12T09:21:29.084Z,0.50
2023-05-12T09:23:56.415Z,0.63
2023-05-12T09:26:24.407Z,0.60
2023-05-12T09:28:53.567Z,0.50
2023-05-12T09:31:25.013Z,0.60
2023-05-12T09:33:53.047Z,0.40
2023-05-12T09:36:21.771Z,0.40
2023-05-12T09:39:04.868Z,0.40
2023-05-12T09:41:39.053Z,0.40
2023-05-12T09:44:07.064Z,0.50
2023-05-12T09:46:34.776Z,0.30
2023-05-12T09:49:05.613Z,0.40
2023-05-12T09:51:33.202Z,0.40
2023-05-12T09:54:01.114Z,0.40
2023-05-12T09:56:29.875Z,0.50
2023-05-12T09:58:58.049Z,0.50
2023-05-12T10:01:26.320Z,0.50
2023-05-12T10:03:57.611Z,0.37
2023-05-12T10:06:47.527Z,0.47
2023-05-12T10:09:24.886Z,0.67
2023-05-12T10:11:56.885Z,0.97
2023-05-12T10:14:24.535Z,0.40
2023-05-12T10:16:53.004Z,0.57
2023-05-12T10:19:21.093Z,0.50
2023-05-12T10:21:48.776Z,0.37
2023-05-12T10:24:17.108Z,0.40
2023-05-12T10:26:45.059Z,0.40
2023-05-12T10:29:13.162Z,0.50
2023-05-12T10:31:40.877Z,0.40
2023-05-12T10:34:08.378Z,0.40
2023-05-12T10:36:49.880Z,0.40
2023-05-12T10:39:17.478Z,0.40
2023-05-12T10:41:45.179Z,0.50
2023-05-12T10:44:12.737Z,0.60
2023-05-12T10:46:40.190Z,0.40
2023-05-12T10:49:07.641Z,0.30
2023-05-12T10:51:36.759Z,0.53
2023-05-12T10:54:08.123Z,0.47
2023-05-12T10:56:38.665Z,0.40
2023-05-12T10:59:20.462Z,0.30
2023-05-12T11:02:05.188Z,0.40
2023-05-12T11:04:37.576Z,0.30
2023-05-12T11:07:08.111Z,0.40
2023-05-12T11:09:40.712Z,0.30
2023-05-12T11:12:15.608Z,0.40
2023-05-12T11:14:44.410Z,0.40
2023-05-12T11:17:12.038Z,0.50
2023-05-12T11:19:41.689Z,0.70
2023-05-12T11:22:10.783Z,0.50
2023-05-12T11:24:38.858Z,0.30
2023-05-12T11:27:06.801Z,0.40
2023-05-12T11:29:35.066Z,0.70
2023-05-12T11:32:02.675Z,0.53
2023-05-12T11:34:30.290Z,0.27
2023-05-12T11:36:57.802Z,0.30
2023-05-12T11:39:26.604Z,0.47
2023-05-12T11:42:02.167Z,0.20
2023-05-12T11:44:37.761Z,0.30
2023-05-12T11:47:12.737Z,0.30
2023-05-12T11:49:50.240Z,0.30
2023-05-12T11:52:18.802Z,0.30
2023-05-12T11:55:01.027Z,0.40
2023-05-12T11:57:32.516Z,0.23
2023-05-12T12:00:02.347Z,0.30
2023-05-12T12:02:29.971Z,0.23
2023-05-12T12:04:58.234Z,0.30
2023-05-12T12:07:30.336Z,0.20
2023-05-12T12:09:57.741Z,0.20
2023-05-12T12:12:25.325Z,0.20
2023-05-12T12:14:52.792Z,0.30
2023-05-12T12:17:20.236Z,0.27
2023-05-12T12:19:47.900Z,0.20
2023-05-12T12:22:15.805Z,0.40
2023-05-12T12:24:43.203Z,0.20
2023-05-12T12:27:10.615Z,0.40
2023-05-12T12:29:37.933Z,0.40
2023-05-12T12:32:05.485Z,0.33
2023-05-12T12:34:33.538Z,0.20
2023-05-12T12:37:01.093Z,0.20
2023-05-12T12:39:31.617Z,0.20
2023-05-12T12:41:59.134Z,0.40
2023-05-12T12:44:26.624Z,0.47
2023-05-12T12:46:54.324Z,0.30
2023-05-12T12:49:22.257Z,0.30
2023-05-12T12:51:49.664Z,0.80
2023-05-12T12:54:17.087Z,0.23
2023-05-12T12:56:44.669Z,0.20
2023-05-12T12:59:12.140Z,0.20
2023-05-12T13:01:39.941Z,0.20
2023-05-12T13:04:07.588Z,0.30
2023-05-12T13:06:35.012Z,0.20
2023-05-12T13:09:04.089Z,0.80
2023-05-12T13:11:31.644Z,2.20
2023-05-12T13:13:59.129Z,0.40
2023-05-12T13:16:26.557Z,1.40
2023-05-12T13:18:54.053Z,3.80
2023-05-12T13:21:21.807Z,0.40
2023-05-12T13:23:49.245Z,0.30
2023-05-12T13:26:16.684Z,0.30
2023-05-12T13:28:44.347Z,0.30
2023-05-12T13:31:11.934Z,0.20
2023-05-12T13:33:39.441Z,0.20
2023-05-12T13:36:07.131Z,0.60
2023-05-12T13:38:34.584Z,0.40
2023-05-12T13:41:02.071Z,0.20
2023-05-12T13:43:29.545Z,0.20
2023-05-12T13:45:57.158Z,0.20
2023-05-12T13:48:24.693Z,0.30
2023-05-12T13:50:52.171Z,0.30
2023-05-12T13:53:19.575Z,0.50
2023-05-12T13:55:47.002Z,0.20
2023-05-12T13:58:14.406Z,0.30
2023-05-12T14:00:41.838Z,0.20
2023-05-12T14:03:09.240Z,0.20
2023-05-12T14:05:36.786Z,0.20
2023-05-12T14:08:04.284Z,0.25
2023-05-12T14:10:33.088Z,0.20
2023-05-12T14:13:00.678Z,0.50
2023-05-12T14:15:44.319Z,0.22
2023-05-12T14:18:15.563Z,0.30
2023-05-12T14:20:43.006Z,0.25
2023-05-12T14:23:10.448Z,0.10
2023-05-12T14:25:37.889Z,0.20
2023-05-12T14:28:05.342Z,0.20
2023-05-12T14:30:35.203Z,0.30
2023-05-12T14:33:03.184Z,0.20
2023-05-12T14:35:31.181Z,0.30
2023-05-12T14:37:58.771Z,0.20
2023-05-12T14:40:27.465Z,0.32
2023-05-12T14:42:55.449Z,0.17
2023-05-12T14:45:23.435Z,0.20
2023-05-12T14:47:51.102Z,0.30
2023-05-12T14:50:19.342Z,0.10
2023-05-12T14:52:47.130Z,0.20
2023-05-12T14:55:15.236Z,0.40
2023-05-12T14:57:42.725Z,0.20
2023-05-12T15:00:11.995Z,0.30
2023-05-12T15:02:40.118Z,0.20
2023-05-12T15:05:08.698Z,0.20
2023-05-12T15:07:36.606Z,0.20
2023-05-12T15:10:05.028Z,0.30
2023-05-12T15:12:32.767Z,0.30
2023-05-12T15:15:02.385Z,0.13
2023-05-12T15:17:30.895Z,0.20
2023-05-12T15:19:58.336Z,0.40
2023-05-12T15:22:31.482Z,0.20
2023-05-12T15:24:59.702Z,0.15
2023-05-12T15:27:27.282Z,0.45
2023-05-12T15:29:54.741Z,0.20
2023-05-12T15:32:22.199Z,0.10
2023-05-12T15:34:50.047Z,0.40
2023-05-12T15:37:17.684Z,0.10
2023-05-12T15:39:45.165Z,0.20
2023-05-12T15:42:14.576Z,0.10
2023-05-12T15:44:44.204Z,0.10
2023-05-12T15:47:11.730Z,0.10
2023-05-12T15:49:39.120Z,0.20
2023-05-12T15:52:07.962Z,0.13
2023-05-12T15:54:35.885Z,0.15
2023-05-12T15:57:04.140Z,0.10
2023-05-12T15:59:31.646Z,0.10
2023-05-12T16:01:59.116Z,0.10
2023-05-12T16:04:29.937Z,0.10
2023-05-12T16:06:57.902Z,0.20
2023-05-12T16:09:25.284Z,0.30
2023-05-12T16:11:53.739Z,0.10
2023-05-12T16:14:22.052Z,0.20
2023-05-12T16:16:49.859Z,0.20
2023-05-12T16:19:17.283Z,0.13
2023-05-12T16:21:45.256Z,0.20
2023-05-12T16:24:12.911Z,0.40
2023-05-12T16:26:41.319Z,0.25
2023-05-12T16:29:08.804Z,0.15
2023-05-12T16:31:36.672Z,0.27
2023-05-12T16:34:04.293Z,0.30
2023-05-12T16:36:32.294Z,0.40
2023-05-12T16:39:00.144Z,0.30
2023-05-12T16:41:28.843Z,0.60
2023-05-12T16:43:56.954Z,0.20
2023-05-12T16:46:24.500Z,0.30
2023-05-12T16:48:51.928Z,0.20
2023-05-12T16:51:19.320Z,0.20
2023-05-12T16:53:46.829Z,0.20
2023-05-12T16:56:14.333Z,0.20
2023-05-12T16:58:42.319Z,0.30
2023-05-12T17:01:09.918Z,0.20
2023-05-12T17:03:37.520Z,0.20
2023-05-12T17:06:05.255Z,0.20
2023-05-12T17:08:35.884Z,0.10
2023-05-12T17:11:03.887Z,0.37
2023-05-12T17:13:31.403Z,0.47
2023-05-12T17:15:58.821Z,0.30
2023-05-12T17:18:26.630Z,0.50
2023-05-12T17:20:53.966Z,0.50
2023-05-12T17:23:21.733Z,0.20
2023-05-12T17:25:49.207Z,0.20
2023-05-12T17:28:16.587Z,0.30
2023-05-12T17:30:44.006Z,0.43
2023-05-12T17:33:12.082Z,0.40
2023-05-12T17:35:39.564Z,0.40
2023-05-12T17:38:07.163Z,0.30
2023-05-12T17:40:34.842Z,0.20
2023-05-12T17:43:02.459Z,0.50
2023-05-12T17:45:30.204Z,0.50
2023-05-12T17:47:57.762Z,0.40
2023-05-12T17:50:25.264Z,0.53
2023-05-12T17:52:55.020Z,1.43
2023-05-12T17:55:22.756Z,1.20
2023-05-12T17:57:50.452Z,0.80
2023-05-12T18:00:18.005Z,0.37
2023-05-12T18:02:45.645Z,0.40
2023-05-12T18:05:13.290Z,0.50
2023-05-12T18:07:40.795Z,2.00
2023-05-12T18:10:09.414Z,1.63
2023-05-12T18:12:37.853Z,0.90
2023-05-12T18:15:06.397Z,0.40
2023-05-12T18:17:34.100Z,0.40
2023-05-12T18:20:01.754Z,0.53
2023-05-12T18:22:29.106Z,0.40
2023-05-12T18:24:56.564Z,0.40
2023-05-12T18:27:24.061Z,0.30
2023-05-12T18:29:51.646Z,0.27
2023-05-12T18:32:19.091Z,0.40
2023-05-12T18:34:47.013Z,0.37
2023-05-12T18:37:15.788Z,0.30
2023-05-12T18:39:43.439Z,0.40
2023-05-12T18:42:11.565Z,0.60
2023-05-12T18:44:41.256Z,0.40
2023-05-12T18:47:09.247Z,0.47
2023-05-12T18:49:37.652Z,0.70
2023-05-12T18:52:08.889Z,0.83
2023-05-12T18:54:36.971Z,0.50
2023-05-12T18:57:04.444Z,0.40
2023-05-12T18:59:32.663Z,0.70
2023-05-12T19:02:00.185Z,0.30
2023-05-12T19:04:27.736Z,0.50
2023-05-12T19:06:55.166Z,0.40
2023-05-12T19:09:22.855Z,0.40
2023-05-12T19:11:50.448Z,0.70
2023-05-12T19:14:17.961Z,0.60
2023-05-12T19:16:46.898Z,0.40
2023-05-12T19:19:14.688Z,0.77
2023-05-12T19:21:42.530Z,0.37
2023-05-12T19:24:10.813Z,0.40
2023-05-12T19:26:38.288Z,0.40
2023-05-12T19:29:05.731Z,0.43
2023-05-12T19:31:34.459Z,0.40
2023-05-12T19:34:02.051Z,0.30
2023-05-12T19:36:30.003Z,0.57
2023-05-12T19:38:59.725Z,0.43
2023-05-12T19:41:31.007Z,2.70
2023-05-12T19:43:58.363Z,3.37
2023-05-12T19:46:25.813Z,0.87
2023-05-12T19:48:53.686Z,0.40
2023-05-12T19:51:21.087Z,0.50
2023-05-12T19:53:48.525Z,0.30
2023-05-12T19:56:16.039Z,0.43
2023-05-12T19:58:43.504Z,0.40
2023-05-12T20:01:12.489Z,0.30
2023-05-12T20:03:40.076Z,0.60
2023-05-12T20:06:07.571Z,0.40
2023-05-12T20:08:35.013Z,0.30
2023-05-12T20:11:02.406Z,0.30
2023-05-12T20:13:29.689Z,0.40
2023-05-12T20:15:57.170Z,0.30
2023-05-12T20:18:24.824Z,0.20
2023-05-12T20:20:52.246Z,0.20
2023-05-12T20:23:19.603Z,0.23
2023-05-12T20:25:47.364Z,0.20
2023-05-12T20:28:15.054Z,0.20
2023-05-12T20:30:42.500Z,0.27
2023-05-12T20:33:09.977Z,0.40
2023-05-12T20:35:37.410Z,0.40
2023-05-12T20:38:05.016Z,0.40
2023-05-12T20:40:32.445Z,0.47
2023-05-12T20:42:59.882Z,0.40
2023-05-12T20:45:27.401Z,0.40
2023-05-12T20:47:54.820Z,0.20
2023-05-12T20:50:23.841Z,0.20
2023-05-12T20:52:51.326Z,0.20
2023-05-12T20:55:18.982Z,0.20
2023-05-12T20:57:46.487Z,0.23
2023-05-12T21:00:14.327Z,0.20
2023-05-12T21:02:41.730Z,0.20
2023-05-12T21:05:10.375Z,0.40
2023-05-12T21:07:37.765Z,0.27
2023-05-12T21:10:06.082Z,0.37
2023-05-12T21:12:33.608Z,0.90
2023-05-12T21:15:01.811Z,0.87
2023-05-12T21:17:29.233Z,0.33
2023-05-12T21:19:56.681Z,0.57
2023-05-12T21:22:24.122Z,0.40
2023-05-12T21:24:51.827Z,0.30
2023-05-12T21:27:19.580Z,0.20
2023-05-12T21:29:46.959Z,0.23
2023-05-12T21:32:14.444Z,0.20
2023-05-12T21:34:41.881Z,0.20
2023-05-12T21:37:09.328Z,0.20
2023-05-12T21:39:36.720Z,0.20
2023-05-12T21:42:04.360Z,0.40
2023-05-12T21:44:31.878Z,0.20
2023-05-12T21:46:59.357Z,0.20
2023-05-12T21:49:26.957Z,0.20
2023-05-12T21:51:57.447Z,0.30
2023-05-12T21:54:24.814Z,0.20
2023-05-12T21:56:52.679Z,0.40
2023-05-12T21:59:20.830Z,0.10
2023-05-12T22:01:48.352Z,0.10
2023-05-12T22:04:16.805Z,0.20
2023-05-12T22:06:44.578Z,0.20
2023-05-12T22:09:12.369Z,0.20
2023-05-12T22:11:39.923Z,0.20
2023-05-12T22:14:07.405Z,0.40
2023-05-12T22:16:41.790Z,0.20
2023-05-12T22:19:09.609Z,0.20
2023-05-12T22:21:37.083Z,0.20
2023-05-12T22:24:04.647Z,0.10
2023-05-12T22:26:32.050Z,0.30
2023-05-12T22:28:59.524Z,0.30
2023-05-12T22:31:27.032Z,0.23
2023-05-12T22:33:54.416Z,0.20
2023-05-12T22:36:21.858Z,0.20
2023-05-12T22:38:49.251Z,0.20
2023-05-12T22:41:16.686Z,0.20
2023-05-12T22:43:44.091Z,1.00
2023-05-12T22:46:11.522Z,0.30
2023-05-12T22:48:39.645Z,0.30
2023-05-12T22:51:07.653Z,0.20
2023-05-12T22:53:41.240Z,0.30
2023-05-12T22:56:09.003Z,0.20
2023-05-12T22:58:36.374Z,0.47
2023-05-12T23:01:04.213Z,0.50
2023-05-12T23:03:32.932Z,0.33
2023-05-12T23:06:00.449Z,0.30
2023-05-12T23:08:27.806Z,0.27
2023-05-12T23:10:55.166Z,0.40
2023-05-12T23:13:22.566Z,0.30
2023-05-12T23:15:49.985Z,0.60
2023-05-12T23:18:17.299Z,0.60
2023-05-12T23:20:44.769Z,0.47
2023-05-12T23:23:12.205Z,0.40
2023-05-12T23:25:39.682Z,0.30
2023-05-12T23:28:07.320Z,0.30
2023-05-12T23:30:34.768Z,0.30
2023-05-12T23:33:02.202Z,0.40
2023-05-12T23:35:30.123Z,0.33
2023-05-12T23:37:57.497Z,0.30
2023-05-12T23:40:24.805Z,0.20
2023-05-12T23:42:52.162Z,0.20
2023-05-12T23:45:19.524Z,0.30
2023-05-12T23:47:47.008Z,0.20
2023-05-12T23:50:14.395Z,0.20
2023-05-12T23:52:41.740Z,0.27
2023-05-12T23:55:09.460Z,0.33
2023-05-12T23:57:36.845Z,0.13
